sensor_id;sensor_type;location;lat;lon;timestamp;temperature;humidity
38359;DHT22;42072;48.044;14.416;2024-01-16T00:02:02;0.70;99.90
38359;DHT22;42072;48.044;14.416;2024-01-16T00:04:30;0.60;99.90
38359;DHT22;42072;48.044;14.416;2024-01-16T00:06:57;0.70;99.90
38359;DHT22;42072;48.044;14.416;2024-01-16T00:09:25;0.70;99.90
38359;DHT22;42072;48.044;14.416;2024-01-16T00:11:52;0.70;99.90
38359;DHT22;42072;48.044;14.416;2024-01-16T00:14:19;0.70;99.90
38359;DHT22;42072;48.044;14.416;2024-01-16T00:16:46;0.70;99.90
38359;DHT22;42072;48.044;14.416;2024-01-16T00:19:14;0.70;99.90
38359;DHT22;42072;48.044;14.416;2024-01-16T00:21:42;0.70;99.90
38359;DHT22;42072;48.044;14.416;2024-01-16T00:24:09;0.70;99.90
38359;DHT22;42072;48.044;14.416;2024-01-16T00:26:36;0.70;99.90
38359;DHT22;42072;48.044;14.416;2024-01-16T00:29:04;0.70;99.90
38359;DHT22;42072;48.044;14.416;2024-01-16T00:31:31;0.70;99.90
38359;DHT22;42072;48.044;14.416;2024-01-16T00:33:58;0.70;99.90
38359;DHT22;42072;48.044;14.416;2024-01-16T00:36:25;0.80;99.90
38359;DHT22;42072;48.044;14.416;2024-01-16T00:38:52;0.80;99.90
38359;DHT22;42072;48.044;14.416;2024-01-16T00:41:19;0.80;99.90
38359;DHT22;42072;48.044;14.416;2024-01-16T00:43:46;0.80;99.90
38359;DHT22;42072;48.044;14.416;2024-01-16T00:46:13;0.80;99.90
38359;DHT22;42072;48.044;14.416;2024-01-16T00:48:40;0.70;99.90
38359;DHT22;42072;48.044;14.416;2024-01-16T00:51:08;0.70;99.90
38359;DHT22;42072;48.044;14.416;2024-01-16T00:53:39;0.70;99.90
38359;DHT22;42072;48.044;14.416;2024-01-16T00:56:07;0.70;99.90
38359;DHT22;42072;48.044;14.416;2024-01-16T00:58:34;0.70;99.90
38359;DHT22;42072;48.044;14.416;2024-01-16T01:01:01;0.70;99.90
38359;DHT22;42072;48.044;14.416;2024-01-16T01:03:29;0.70;99.90
38359;DHT22;42072;48.044;14.416;2024-01-16T01:05:56;0.60;99.90
38359;DHT22;42072;48.044;14.416;2024-01-16T01:08:23;0.60;99.90
38359;DHT22;42072;48.044;14.416;2024-01-16T01:10:50;0.60;99.90
38359;DHT22;42072;48.044;14.416;2024-01-16T01:13:17;0.60;99.90
38359;DHT22;42072;48.044;14.416;2024-01-16T01:15:44;0.60;99.90
38359;DHT22;42072;48.044;14.416;2024-01-16T01:18:12;0.60;99.90
38359;DHT22;42072;48.044;14.416;2024-01-16T01:20:39;0.60;99.90
38359;DHT22;42072;48.044;14.416;2024-01-16T01:23:06;0.60;99.90
38359;DHT22;42072;48.044;14.416;2024-01-16T01:25:34;0.60;99.90
38359;DHT22;42072;48.044;14.416;2024-01-16T01:28:01;0.60;99.90
38359;DHT22;42072;48.044;14.416;2024-01-16T01:30:28;0.60;99.90
38359;DHT22;42072;48.044;14.416;2024-01-16T01:32:55;0.60;99.90
38359;DHT22;42072;48.044;14.416;2024-01-16T01:35:22;0.60;99.90
38359;DHT22;42072;48.044;14.416;2024-01-16T01:37:49;0.60;99.90
38359;DHT22;42072;48.044;14.416;2024-01-16T01:40:16;0.70;99.90
38359;DHT22;42072;48.044;14.416;2024-01-16T01:42:44;0.70;99.90
38359;DHT22;42072;48.044;14.416;2024-01-16T01:45:11;0.70;99.90
38359;DHT22;42072;48.044;14.416;2024-01-16T01:47:42;0.60;99.90
38359;DHT22;42072;48.044;14.416;2024-01-16T01:50:09;0.70;99.90
38359;DHT22;42072;48.044;14.416;2024-01-16T01:52:40;0.70;99.90
38359;DHT22;42072;48.044;14.416;2024-01-16T01:55:09;0.60;99.90
38359;DHT22;42072;48.044;14.416;2024-01-16T01:57:37;0.70;99.90
38359;DHT22;42072;48.044;14.416;2024-01-16T02:00:05;0.60;99.90
38359;DHT22;42072;48.044;14.416;2024-01-16T02:02:33;0.60;99.90
38359;DHT22;42072;48.044;14.416;2024-01-16T02:05:00;0.60;99.90
38359;DHT22;42072;48.044;14.416;2024-01-16T02:07:28;0.50;99.90
38359;DHT22;42072;48.044;14.416;2024-01-16T02:09:56;0.60;99.90
38359;DHT22;42072;48.044;14.416;2024-01-16T02:12:23;0.60;99.90
38359;DHT22;42072;48.044;14.416;2024-01-16T02:14:51;0.60;99.90
38359;DHT22;42072;48.044;14.416;2024-01-16T02:17:18;0.60;99.90
38359;DHT22;42072;48.044;14.416;2024-01-16T02:19:45;0.60;99.90
38359;DHT22;42072;48.044;14.416;2024-01-16T02:22:15;0.60;99.90
38359;DHT22;42072;48.044;14.416;2024-01-16T02:24:43;0.50;99.90
38359;DHT22;42072;48.044;14.416;2024-01-16T02:27:10;0.60;99.90
38359;DHT22;42072;48.044;14.416;2024-01-16T02:29:43;0.60;99.90
38359;DHT22;42072;48.044;14.416;2024-01-16T02:32:12;0.60;99.90
38359;DHT22;42072;48.044;14.416;2024-01-16T02:34:40;0.60;99.90
38359;DHT22;42072;48.044;14.416;2024-01-16T02:37:08;0.60;99.90
38359;DHT22;42072;48.044;14.416;2024-01-16T02:39:35;0.60;99.90
38359;DHT22;42072;48.044;14.416;2024-01-16T02:42:02;0.60;99.90
38359;DHT22;42072;48.044;14.416;2024-01-16T02:44:29;0.60;99.90
38359;DHT22;42072;48.044;14.416;2024-01-16T02:46:57;0.50;99.90
38359;DHT22;42072;48.044;14.416;2024-01-16T02:49:24;0.60;99.90
38359;DHT22;42072;48.044;14.416;2024-01-16T02:51:53;0.50;99.90
38359;DHT22;42072;48.044;14.416;2024-01-16T02:54:21;0.50;99.90
38359;DHT22;42072;48.044;14.416;2024-01-16T02:56:49;0.50;99.90
38359;DHT22;42072;48.044;14.416;2024-01-16T02:59:17;0.50;99.90
38359;DHT22;42072;48.044;14.416;2024-01-16T03:01:44;0.40;99.90
38359;DHT22;42072;48.044;14.416;2024-01-16T03:04:11;0.40;99.90
38359;DHT22;42072;48.044;14.416;2024-01-16T03:06:38;0.50;99.90
38359;DHT22;42072;48.044;14.416;2024-01-16T03:09:05;0.50;99.90
38359;DHT22;42072;48.044;14.416;2024-01-16T03:11:33;0.50;99.90
38359;DHT22;42072;48.044;14.416;2024-01-16T03:14:00;0.50;99.90
38359;DHT22;42072;48.044;14.416;2024-01-16T03:16:28;0.50;99.90
38359;DHT22;42072;48.044;14.416;2024-01-16T03:18:55;0.40;99.90
38359;DHT22;42072;48.044;14.416;2024-01-16T03:21:23;0.50;99.90
38359;DHT22;42072;48.044;14.416;2024-01-16T03:23:50;0.40;99.90
38359;DHT22;42072;48.044;14.416;2024-01-16T03:26:17;0.40;99.90
38359;DHT22;42072;48.044;14.416;2024-01-16T03:28:44;0.40;99.90
38359;DHT22;42072;48.044;14.416;2024-01-16T03:31:15;0.50;99.90
38359;DHT22;42072;48.044;14.416;2024-01-16T03:33:42;0.50;99.90
38359;DHT22;42072;48.044;14.416;2024-01-16T03:36:10;0.40;99.90
38359;DHT22;42072;48.044;14.416;2024-01-16T03:38:42;0.40;99.90
38359;DHT22;42072;48.044;14.416;2024-01-16T03:41:12;0.40;99.90
38359;DHT22;42072;48.044;14.416;2024-01-16T03:43:40;0.40;99.90
38359;DHT22;42072;48.044;14.416;2024-01-16T03:46:10;0.40;99.90
38359;DHT22;42072;48.044;14.416;2024-01-16T03:48:37;0.30;99.90
38359;DHT22;42072;48.044;14.416;2024-01-16T03:51:04;0.40;99.90
38359;DHT22;42072;48.044;14.416;2024-01-16T03:53:31;0.40;99.90
38359;DHT22;42072;48.044;14.416;2024-01-16T03:55:58;0.30;99.90
38359;DHT22;42072;48.044;14.416;2024-01-16T03:58:25;0.30;99.90
38359;DHT22;42072;48.044;14.416;2024-01-16T04:00:52;0.30;99.90
38359;DHT22;42072;48.044;14.416;2024-01-16T04:03:20;0.30;99.90
38359;DHT22;42072;48.044;14.416;2024-01-16T04:05:47;0.30;99.90
38359;DHT22;42072;48.044;14.416;2024-01-16T04:08:15;0.40;99.90
38359;DHT22;42072;48.044;14.416;2024-01-16T04:10:42;0.30;99.90
38359;DHT22;42072;48.044;14.416;2024-01-16T04:13:09;0.40;99.90
38359;DHT22;42072;48.044;14.416;2024-01-16T04:15:39;0.30;99.90
38359;DHT22;42072;48.044;14.416;2024-01-16T04:18:06;0.30;99.90
38359;DHT22;42072;48.044;14.416;2024-01-16T04:20:34;0.30;99.90
38359;DHT22;42072;48.044;14.416;2024-01-16T04:23:01;0.30;99.90
38359;DHT22;42072;48.044;14.416;2024-01-16T04:25:28;0.30;99.90
38359;DHT22;42072;48.044;14.416;2024-01-16T04:27:55;0.30;99.90
38359;DHT22;42072;48.044;14.416;2024-01-16T04:30:25;0.30;99.90
38359;DHT22;42072;48.044;14.416;2024-01-16T04:32:52;0.30;99.90
38359;DHT22;42072;48.044;14.416;2024-01-16T04:35:20;0.30;99.90
38359;DHT22;42072;48.044;14.416;2024-01-16T04:37:49;0.30;99.90
38359;DHT22;42072;48.044;14.416;2024-01-16T04:40:16;0.30;99.90
38359;DHT22;42072;48.044;14.416;2024-01-16T04:42:43;0.30;99.90
38359;DHT22;42072;48.044;14.416;2024-01-16T04:45:10;0.40;99.90
38359;DHT22;42072;48.044;14.416;2024-01-16T04:47:37;0.40;99.90
38359;DHT22;42072;48.044;14.416;2024-01-16T04:50:05;0.40;99.90
38359;DHT22;42072;48.044;14.416;2024-01-16T04:52:32;0.30;99.90
38359;DHT22;42072;48.044;14.416;2024-01-16T04:54:59;0.40;99.90
38359;DHT22;42072;48.044;14.416;2024-01-16T04:57:26;0.40;99.90
38359;DHT22;42072;48.044;14.416;2024-01-16T04:59:53;0.50;99.90
38359;DHT22;42072;48.044;14.416;2024-01-16T05:02:20;0.40;99.90
38359;DHT22;42072;48.044;14.416;2024-01-16T05:04:47;0.40;99.90
38359;DHT22;42072;48.044;14.416;2024-01-16T05:07:16;0.30;99.90
38359;DHT22;42072;48.044;14.416;2024-01-16T05:09:44;0.40;99.90
38359;DHT22;42072;48.044;14.416;2024-01-16T05:12:12;0.40;99.90
38359;DHT22;42072;48.044;14.416;2024-01-16T05:14:39;0.40;99.90
38359;DHT22;42072;48.044;14.416;2024-01-16T05:17:06;0.40;99.90
38359;DHT22;42072;48.044;14.416;2024-01-16T05:19:33;0.40;99.90
38359;DHT22;42072;48.044;14.416;2024-01-16T05:22:17;0.40;99.90
38359;DHT22;42072;48.044;14.416;2024-01-16T05:25:02;0.40;99.90
38359;DHT22;42072;48.044;14.416;2024-01-16T05:27:47;0.40;99.90
38359;DHT22;42072;48.044;14.416;2024-01-16T05:30:31;0.40;99.90
38359;DHT22;42072;48.044;14.416;2024-01-16T05:32:59;0.40;99.90
38359;DHT22;42072;48.044;14.416;2024-01-16T05:35:28;0.40;99.90
38359;DHT22;42072;48.044;14.416;2024-01-16T05:37:55;0.40;99.90
38359;DHT22;42072;48.044;14.416;2024-01-16T05:40:22;0.40;99.90
38359;DHT22;42072;48.044;14.416;2024-01-16T05:42:49;0.40;99.90
38359;DHT22;42072;48.044;14.416;2024-01-16T05:45:17;0.40;99.90
38359;DHT22;42072;48.044;14.416;2024-01-16T05:47:44;0.40;99.90
38359;DHT22;42072;48.044;14.416;2024-01-16T05:50:11;0.40;99.90
38359;DHT22;42072;48.044;14.416;2024-01-16T05:52:39;0.50;99.90
38359;DHT22;42072;48.044;14.416;2024-01-16T05:55:11;0.50;99.90
38359;DHT22;42072;48.044;14.416;2024-01-16T05:57:38;0.40;99.90
38359;DHT22;42072;48.044;14.416;2024-01-16T06:00:05;0.40;99.90
38359;DHT22;42072;48.044;14.416;2024-01-16T06:02:32;0.40;99.90
38359;DHT22;42072;48.044;14.416;2024-01-16T06:05:00;0.40;99.90
38359;DHT22;42072;48.044;14.416;2024-01-16T06:07:27;0.40;99.90
38359;DHT22;42072;48.044;14.416;2024-01-16T06:09:54;0.50;99.90
38359;DHT22;42072;48.044;14.416;2024-01-16T06:12:21;0.50;99.90
38359;DHT22;42072;48.044;14.416;2024-01-16T06:14:48;0.40;99.90
38359;DHT22;42072;48.044;14.416;2024-01-16T06:17:32;0.50;99.90
38359;DHT22;42072;48.044;14.416;2024-01-16T06:19:59;0.50;99.90
38359;DHT22;42072;48.044;14.416;2024-01-16T06:22:27;0.50;99.90
38359;DHT22;42072;48.044;14.416;2024-01-16T06:24:54;0.50;99.90
38359;DHT22;42072;48.044;14.416;2024-01-16T06:27:21;0.50;99.90
38359;DHT22;42072;48.044;14.416;2024-01-16T06:29:48;0.40;99.90
38359;DHT22;42072;48.044;14.416;2024-01-16T06:32:16;0.40;99.90
38359;DHT22;42072;48.044;14.416;2024-01-16T06:35:00;0.40;99.90
38359;DHT22;42072;48.044;14.416;2024-01-16T06:37:27;0.40;99.90
38359;DHT22;42072;48.044;14.416;2024-01-16T06:39:54;0.40;99.90
38359;DHT22;42072;48.044;14.416;2024-01-16T06:42:21;0.30;99.90
38359;DHT22;42072;48.044;14.416;2024-01-16T06:44:48;0.30;99.90
38359;DHT22;42072;48.044;14.416;2024-01-16T06:47:16;0.40;99.90
38359;DHT22;42072;48.044;14.416;2024-01-16T06:50:00;0.30;99.90
38359;DHT22;42072;48.044;14.416;2024-01-16T06:52:44;0.30;99.90
38359;DHT22;42072;48.044;14.416;2024-01-16T07:03:25;0.30;99.90
38359;DHT22;42072;48.044;14.416;2024-01-16T07:05:52;0.40;99.90
38359;DHT22;42072;48.044;14.416;2024-01-16T07:08:19;0.40;99.90
38359;DHT22;42072;48.044;14.416;2024-01-16T07:10:47;0.50;99.90
38359;DHT22;42072;48.044;14.416;2024-01-16T07:13:14;0.50;99.90
38359;DHT22;42072;48.044;14.416;2024-01-16T07:15:41;0.50;99.90
38359;DHT22;42072;48.044;14.416;2024-01-16T07:18:08;0.50;99.90
38359;DHT22;42072;48.044;14.416;2024-01-16T07:20:36;0.50;99.90
38359;DHT22;42072;48.044;14.416;2024-01-16T07:23:03;0.50;99.90
38359;DHT22;42072;48.044;14.416;2024-01-16T07:25:31;0.60;99.90
38359;DHT22;42072;48.044;14.416;2024-01-16T07:27:58;0.60;99.90
38359;DHT22;42072;48.044;14.416;2024-01-16T07:30:42;0.50;99.90
38359;DHT22;42072;48.044;14.416;2024-01-16T07:33:09;0.40;99.90
38359;DHT22;42072;48.044;14.416;2024-01-16T07:35:36;0.40;99.90
38359;DHT22;42072;48.044;14.416;2024-01-16T07:38:04;0.30;99.90
38359;DHT22;42072;48.044;14.416;2024-01-16T07:40:48;0.30;99.90
38359;DHT22;42072;48.044;14.416;2024-01-16T07:43:33;0.30;99.90
38359;DHT22;42072;48.044;14.416;2024-01-16T07:46:00;0.30;99.90
38359;DHT22;42072;48.044;14.416;2024-01-16T07:48:27;0.40;99.90
38359;DHT22;42072;48.044;14.416;2024-01-16T07:50:54;0.50;99.90
38359;DHT22;42072;48.044;14.416;2024-01-16T07:53:21;0.60;99.90
38359;DHT22;42072;48.044;14.416;2024-01-16T07:55:48;0.70;99.90
38359;DHT22;42072;48.044;14.416;2024-01-16T07:58:15;0.80;99.90
38359;DHT22;42072;48.044;14.416;2024-01-16T08:00:42;0.80;99.90
38359;DHT22;42072;48.044;14.416;2024-01-16T08:03:09;0.90;99.90
38359;DHT22;42072;48.044;14.416;2024-01-16T08:05:38;1.00;99.90
38359;DHT22;42072;48.044;14.416;2024-01-16T08:08:09;1.00;99.90
38359;DHT22;42072;48.044;14.416;2024-01-16T08:10:36;1.00;99.90
38359;DHT22;42072;48.044;14.416;2024-01-16T08:13:20;1.00;99.90
38359;DHT22;42072;48.044;14.416;2024-01-16T08:16:05;1.10;99.90
38359;DHT22;42072;48.044;14.416;2024-01-16T08:18:37;1.20;99.90
38359;DHT22;42072;48.044;14.416;2024-01-16T08:21:04;1.40;99.90
38359;DHT22;42072;48.044;14.416;2024-01-16T08:23:49;1.50;99.90
38359;DHT22;42072;48.044;14.416;2024-01-16T08:26:17;1.60;99.90
38359;DHT22;42072;48.044;14.416;2024-01-16T08:28:44;1.70;99.90
38359;DHT22;42072;48.044;14.416;2024-01-16T08:31:11;1.90;99.90
38359;DHT22;42072;48.044;14.416;2024-01-16T08:33:39;2.00;99.90
38359;DHT22;42072;48.044;14.416;2024-01-16T08:36:13;2.10;99.90
38359;DHT22;42072;48.044;14.416;2024-01-16T08:38:41;2.20;99.90
38359;DHT22;42072;48.044;14.416;2024-01-16T08:41:08;2.20;99.90
38359;DHT22;42072;48.044;14.416;2024-01-16T08:43:35;2.20;99.90
38359;DHT22;42072;48.044;14.416;2024-01-16T08:46:02;2.20;99.90
38359;DHT22;42072;48.044;14.416;2024-01-16T08:48:30;2.30;99.90
38359;DHT22;42072;48.044;14.416;2024-01-16T08:50:58;2.30;99.90
38359;DHT22;42072;48.044;14.416;2024-01-16T08:53:28;2.40;99.90
38359;DHT22;42072;48.044;14.416;2024-01-16T08:55:55;2.50;99.90
38359;DHT22;42072;48.044;14.416;2024-01-16T08:58:22;2.60;99.90
38359;DHT22;42072;48.044;14.416;2024-01-16T09:00:49;2.80;99.90
38359;DHT22;42072;48.044;14.416;2024-01-16T09:03:16;2.80;99.90
38359;DHT22;42072;48.044;14.416;2024-01-16T09:05:45;3.00;99.90
38359;DHT22;42072;48.044;14.416;2024-01-16T09:08:12;3.10;99.90
38359;DHT22;42072;48.044;14.416;2024-01-16T09:10:56;3.20;99.90
38359;DHT22;42072;48.044;14.416;2024-01-16T09:13:41;3.20;99.90
38359;DHT22;42072;48.044;14.416;2024-01-16T09:16:07;3.20;99.90
38359;DHT22;42072;48.044;14.416;2024-01-16T09:18:34;3.00;99.90
38359;DHT22;42072;48.044;14.416;2024-01-16T09:21:02;3.10;99.90
38359;DHT22;42072;48.044;14.416;2024-01-16T09:23:29;3.00;99.90
38359;DHT22;42072;48.044;14.416;2024-01-16T09:25:56;3.00;99.90
38359;DHT22;42072;48.044;14.416;2024-01-16T09:28:23;3.10;99.90
38359;DHT22;42072;48.044;14.416;2024-01-16T09:31:09;3.20;99.90
38359;DHT22;42072;48.044;14.416;2024-01-16T09:33:36;3.20;99.90
38359;DHT22;42072;48.044;14.416;2024-01-16T09:36:03;3.30;99.90
38359;DHT22;42072;48.044;14.416;2024-01-16T09:38:30;3.50;99.90
38359;DHT22;42072;48.044;14.416;2024-01-16T09:40:58;3.60;99.90
38359;DHT22;42072;48.044;14.416;2024-01-16T09:43:29;3.80;99.90
38359;DHT22;42072;48.044;14.416;2024-01-16T09:45:56;3.90;99.90
38359;DHT22;42072;48.044;14.416;2024-01-16T09:48:29;3.90;99.90
38359;DHT22;42072;48.044;14.416;2024-01-16T09:50:58;4.20;99.90
38359;DHT22;42072;48.044;14.416;2024-01-16T09:55:54;4.40;99.90
38359;DHT22;42072;48.044;14.416;2024-01-16T09:58:21;4.40;99.90
38359;DHT22;42072;48.044;14.416;2024-01-16T10:00:51;4.50;99.90
38359;DHT22;42072;48.044;14.416;2024-01-16T10:03:19;4.50;99.90
38359;DHT22;42072;48.044;14.416;2024-01-16T10:05:47;4.40;99.90
38359;DHT22;42072;48.044;14.416;2024-01-16T10:08:15;4.30;99.90
38359;DHT22;42072;48.044;14.416;2024-01-16T10:11:00;4.40;99.90
38359;DHT22;42072;48.044;14.416;2024-01-16T10:13:27;4.40;99.90
38359;DHT22;42072;48.044;14.416;2024-01-16T10:16:11;4.40;99.90
38359;DHT22;42072;48.044;14.416;2024-01-16T10:18:38;4.30;99.90
38359;DHT22;42072;48.044;14.416;2024-01-16T10:21:09;4.30;99.90
38359;DHT22;42072;48.044;14.416;2024-01-16T10:23:46;4.30;99.90
38359;DHT22;42072;48.044;14.416;2024-01-16T10:26:13;4.20;99.90
38359;DHT22;42072;48.044;14.416;2024-01-16T10:28:46;4.30;99.90
38359;DHT22;42072;48.044;14.416;2024-01-16T10:31:13;4.40;99.90
38359;DHT22;42072;48.044;14.416;2024-01-16T10:33:44;4.50;99.90
38359;DHT22;42072;48.044;14.416;2024-01-16T10:36:15;4.60;99.90
38359;DHT22;42072;48.044;14.416;2024-01-16T10:38:47;4.60;99.90
38359;DHT22;42072;48.044;14.416;2024-01-16T10:41:15;4.60;99.90
38359;DHT22;42072;48.044;14.416;2024-01-16T10:43:44;4.80;99.90
38359;DHT22;42072;48.044;14.416;2024-01-16T10:46:14;4.90;99.90
38359;DHT22;42072;48.044;14.416;2024-01-16T10:48:45;5.00;99.90
38359;DHT22;42072;48.044;14.416;2024-01-16T10:51:42;4.90;99.90
38359;DHT22;42072;48.044;14.416;2024-01-16T10:54:12;5.10;99.90
38359;DHT22;42072;48.044;14.416;2024-01-16T10:56:46;4.80;99.90
38359;DHT22;42072;48.044;14.416;2024-01-16T10:59:31;4.80;99.90
38359;DHT22;42072;48.044;14.416;2024-01-16T11:02:00;4.80;99.90
38359;DHT22;42072;48.044;14.416;2024-01-16T11:04:28;4.90;99.90
38359;DHT22;42072;48.044;14.416;2024-01-16T11:06:56;4.90;99.90
38359;DHT22;42072;48.044;14.416;2024-01-16T11:09:23;4.90;99.90
38359;DHT22;42072;48.044;14.416;2024-01-16T11:11:50;4.80;99.90
38359;DHT22;42072;48.044;14.416;2024-01-16T11:14:21;5.00;99.90
38359;DHT22;42072;48.044;14.416;2024-01-16T11:16:50;5.20;99.90
38359;DHT22;42072;48.044;14.416;2024-01-16T11:19:35;5.30;99.90
38359;DHT22;42072;48.044;14.416;2024-01-16T11:22:21;5.40;99.90
38359;DHT22;42072;48.044;14.416;2024-01-16T11:25:06;5.30;99.90
38359;DHT22;42072;48.044;14.416;2024-01-16T11:27:51;5.10;99.90
38359;DHT22;42072;48.044;14.416;2024-01-16T11:30:36;5.00;99.90
38359;DHT22;42072;48.044;14.416;2024-01-16T11:36:00;5.10;99.90
38359;DHT22;42072;48.044;14.416;2024-01-16T11:38:27;5.00;99.90
38359;DHT22;42072;48.044;14.416;2024-01-16T11:40:56;5.10;99.90
38359;DHT22;42072;48.044;14.416;2024-01-16T11:46:00;5.30;99.90
38359;DHT22;42072;48.044;14.416;2024-01-16T11:48:28;5.40;99.90
38359;DHT22;42072;48.044;14.416;2024-01-16T11:50:55;5.30;99.90
38359;DHT22;42072;48.044;14.416;2024-01-16T11:53:32;5.30;99.90
38359;DHT22;42072;48.044;14.416;2024-01-16T12:00:54;5.50;99.90
38359;DHT22;42072;48.044;14.416;2024-01-16T12:03:24;5.80;99.90
38359;DHT22;42072;48.044;14.416;2024-01-16T12:06:08;6.00;99.90
38359;DHT22;42072;48.044;14.416;2024-01-16T12:08:36;6.10;99.90
38359;DHT22;42072;48.044;14.416;2024-01-16T12:11:04;5.90;99.90
38359;DHT22;42072;48.044;14.416;2024-01-16T12:13:31;6.00;99.90
38359;DHT22;42072;48.044;14.416;2024-01-16T12:16:02;6.10;99.90
38359;DHT22;42072;48.044;14.416;2024-01-16T12:18:31;6.10;99.90
38359;DHT22;42072;48.044;14.416;2024-01-16T12:21:15;5.80;99.90
38359;DHT22;42072;48.044;14.416;2024-01-16T12:24:00;5.60;99.90
38359;DHT22;42072;48.044;14.416;2024-01-16T12:26:44;5.40;99.90
38359;DHT22;42072;48.044;14.416;2024-01-16T12:29:11;5.40;99.90
38359;DHT22;42072;48.044;14.416;2024-01-16T12:31:39;5.30;99.90
38359;DHT22;42072;48.044;14.416;2024-01-16T12:34:06;5.10;99.90
38359;DHT22;42072;48.044;14.416;2024-01-16T12:36:51;5.10;99.90
38359;DHT22;42072;48.044;14.416;2024-01-16T12:39:47;4.90;99.90
38359;DHT22;42072;48.044;14.416;2024-01-16T12:42:14;4.70;99.90
38359;DHT22;42072;48.044;14.416;2024-01-16T12:44:41;4.70;99.90
38359;DHT22;42072;48.044;14.416;2024-01-16T12:47:09;4.80;99.90
38359;DHT22;42072;48.044;14.416;2024-01-16T12:49:42;4.80;99.90
38359;DHT22;42072;48.044;14.416;2024-01-16T12:52:19;4.60;99.90
38359;DHT22;42072;48.044;14.416;2024-01-16T12:55:04;4.60;99.90
38359;DHT22;42072;48.044;14.416;2024-01-16T12:57:32;4.70;99.90
38359;DHT22;42072;48.044;14.416;2024-01-16T12:59:58;4.80;99.90
38359;DHT22;42072;48.044;14.416;2024-01-16T13:02:30;5.00;99.90
38359;DHT22;42072;48.044;14.416;2024-01-16T13:04:58;4.90;99.90
38359;DHT22;42072;48.044;14.416;2024-01-16T13:07:26;5.00;99.90
38359;DHT22;42072;48.044;14.416;2024-01-16T13:10:08;4.90;99.90
38359;DHT22;42072;48.044;14.416;2024-01-16T13:12:35;4.80;99.90
38359;DHT22;42072;48.044;14.416;2024-01-16T13:15:20;4.50;99.90
38359;DHT22;42072;48.044;14.416;2024-01-16T13:17:47;4.50;99.90
38359;DHT22;42072;48.044;14.416;2024-01-16T13:20:14;4.30;99.90
38359;DHT22;42072;48.044;14.416;2024-01-16T13:22:43;4.10;99.90
38359;DHT22;42072;48.044;14.416;2024-01-16T13:25:14;4.20;99.90
38359;DHT22;42072;48.044;14.416;2024-01-16T13:27:42;4.10;99.90
38359;DHT22;42072;48.044;14.416;2024-01-16T13:30:09;4.00;99.90
38359;DHT22;42072;48.044;14.416;2024-01-16T13:32:37;4.00;99.90
38359;DHT22;42072;48.044;14.416;2024-01-16T13:35:05;4.10;99.90
38359;DHT22;42072;48.044;14.416;2024-01-16T13:37:35;4.20;99.90
38359;DHT22;42072;48.044;14.416;2024-01-16T13:40:21;4.20;99.90
38359;DHT22;42072;48.044;14.416;2024-01-16T13:42:51;4.10;99.90
38359;DHT22;42072;48.044;14.416;2024-01-16T13:45:17;4.10;99.90
38359;DHT22;42072;48.044;14.416;2024-01-16T13:47:45;4.20;99.90
38359;DHT22;42072;48.044;14.416;2024-01-16T13:50:12;4.30;99.90
38359;DHT22;42072;48.044;14.416;2024-01-16T13:52:39;4.30;99.90
38359;DHT22;42072;48.044;14.416;2024-01-16T13:55:07;4.50;99.90
38359;DHT22;42072;48.044;14.416;2024-01-16T13:57:34;4.70;99.90
38359;DHT22;42072;48.044;14.416;2024-01-16T14:00:07;4.60;99.90
38359;DHT22;42072;48.044;14.416;2024-01-16T14:02:37;4.40;99.90
38359;DHT22;42072;48.044;14.416;2024-01-16T14:05:05;4.40;99.90
38359;DHT22;42072;48.044;14.416;2024-01-16T14:07:32;4.30;99.90
38359;DHT22;42072;48.044;14.416;2024-01-16T14:09:59;4.20;99.90
38359;DHT22;42072;48.044;14.416;2024-01-16T14:12:29;4.10;99.90
38359;DHT22;42072;48.044;14.416;2024-01-16T14:14:56;4.00;99.90
38359;DHT22;42072;48.044;14.416;2024-01-16T14:17:23;3.60;99.90
38359;DHT22;42072;48.044;14.416;2024-01-16T14:20:07;3.50;99.90
38359;DHT22;42072;48.044;14.416;2024-01-16T14:22:38;3.40;99.90
38359;DHT22;42072;48.044;14.416;2024-01-16T14:25:08;3.40;99.90
38359;DHT22;42072;48.044;14.416;2024-01-16T14:27:39;3.30;99.90
38359;DHT22;42072;48.044;14.416;2024-01-16T14:30:07;3.20;99.90
38359;DHT22;42072;48.044;14.416;2024-01-16T14:32:38;3.10;99.90
38359;DHT22;42072;48.044;14.416;2024-01-16T14:35:06;3.00;99.90
38359;DHT22;42072;48.044;14.416;2024-01-16T14:37:34;2.80;99.90
38359;DHT22;42072;48.044;14.416;2024-01-16T14:40:02;2.50;99.90
38359;DHT22;42072;48.044;14.416;2024-01-16T14:42:39;2.40;99.90
38359;DHT22;42072;48.044;14.416;2024-01-16T14:45:24;2.40;99.90
38359;DHT22;42072;48.044;14.416;2024-01-16T14:47:52;2.30;99.90
38359;DHT22;42072;48.044;14.416;2024-01-16T14:50:21;2.20;99.90
38359;DHT22;42072;48.044;14.416;2024-01-16T14:52:49;2.20;99.90
38359;DHT22;42072;48.044;14.416;2024-01-16T14:55:18;2.00;99.90
38359;DHT22;42072;48.044;14.416;2024-01-16T14:57:49;1.90;99.90
38359;DHT22;42072;48.044;14.416;2024-01-16T15:00:22;1.90;99.90
38359;DHT22;42072;48.044;14.416;2024-01-16T15:02:54;1.80;99.90
38359;DHT22;42072;48.044;14.416;2024-01-16T15:05:21;1.80;99.90
38359;DHT22;42072;48.044;14.416;2024-01-16T15:08:07;1.80;99.90
38359;DHT22;42072;48.044;14.416;2024-01-16T15:10:51;1.70;99.90
38359;DHT22;42072;48.044;14.416;2024-01-16T15:13:19;1.70;99.90
38359;DHT22;42072;48.044;14.416;2024-01-16T15:15:47;1.70;99.90
38359;DHT22;42072;48.044;14.416;2024-01-16T15:18:14;1.60;99.90
38359;DHT22;42072;48.044;14.416;2024-01-16T15:20:41;1.50;99.90
38359;DHT22;42072;48.044;14.416;2024-01-16T15:23:08;1.40;99.90
38359;DHT22;42072;48.044;14.416;2024-01-16T15:25:35;1.40;99.90
38359;DHT22;42072;48.044;14.416;2024-01-16T15:28:19;1.30;99.90
38359;DHT22;42072;48.044;14.416;2024-01-16T15:31:03;1.20;99.90
38359;DHT22;42072;48.044;14.416;2024-01-16T15:33:34;1.10;99.90
38359;DHT22;42072;48.044;14.416;2024-01-16T15:36:02;1.10;99.90
38359;DHT22;42072;48.044;14.416;2024-01-16T15:38:30;1.00;99.90
38359;DHT22;42072;48.044;14.416;2024-01-16T15:41:14;1.00;99.90
38359;DHT22;42072;48.044;14.416;2024-01-16T15:43:41;0.90;99.90
38359;DHT22;42072;48.044;14.416;2024-01-16T15:46:27;0.90;99.90
38359;DHT22;42072;48.044;14.416;2024-01-16T15:49:11;0.70;99.90
38359;DHT22;42072;48.044;14.416;2024-01-16T15:51:38;0.70;99.90
38359;DHT22;42072;48.044;14.416;2024-01-16T15:54:05;0.50;99.90
38359;DHT22;42072;48.044;14.416;2024-01-16T15:56:32;0.40;99.90
38359;DHT22;42072;48.044;14.416;2024-01-16T15:58:59;0.40;99.90
38359;DHT22;42072;48.044;14.416;2024-01-16T16:01:45;0.40;99.90
38359;DHT22;42072;48.044;14.416;2024-01-16T16:04:12;0.40;99.90
38359;DHT22;42072;48.044;14.416;2024-01-16T16:06:57;0.40;99.90
38359;DHT22;42072;48.044;14.416;2024-01-16T16:09:41;0.50;99.90